sensor_id;sensor_type;location;lat;lon;timestamp;temperature;humidity
71117;SHT31;58775;46.992;9.518;2023-08-06T05:29:16;13.07;96.20
71117;SHT31;58775;46.992;9.518;2023-08-06T05:31:17;13.36;96.71
71117;SHT31;58775;46.992;9.518;2023-08-06T05:33:21;14.18;94.33
71117;SHT31;58775;46.992;9.518;2023-08-06T05:35:22;14.21;94.02
71117;SHT31;58775;46.992;9.518;2023-08-06T05:37:23;14.28;93.89
71117;SHT31;58775;46.992;9.518;2023-08-06T05:39:24;14.47;93.55
71117;SHT31;58775;46.992;9.518;2023-08-06T05:41:24;14.34;93.74
71117;SHT31;58775;46.992;9.518;2023-08-06T05:43:25;14.76;93.10
71117;SHT31;58775;46.992;9.518;2023-08-06T05:45:30;15.09;91.79
71117;SHT31;58775;46.992;9.518;2023-08-06T05:47:31;15.36;91.33
71117;SHT31;58775;46.992;9.518;2023-08-06T05:49:32;15.25;92.07
71117;SHT31;58775;46.992;9.518;2023-08-06T05:51:32;15.18;91.99
71117;SHT31;58775;46.992;9.518;2023-08-06T05:53:33;15.18;92.32
71117;SHT31;58775;46.992;9.518;2023-08-06T05:55:34;15.16;92.23
71117;SHT31;58775;46.992;9.518;2023-08-06T05:57:36;14.95;92.83
71117;SHT31;58775;46.992;9.518;2023-08-06T05:59:36;14.85;92.89
71117;SHT31;58775;46.992;9.518;2023-08-06T06:01:37;14.85;93.93
71117;SHT31;58775;46.992;9.518;2023-08-06T06:03:38;15.02;91.80
71117;SHT31;58775;46.992;9.518;2023-08-06T06:05:39;14.84;92.20
71117;SHT31;58775;46.992;9.518;2023-08-06T06:07:40;14.68;94.04
71117;SHT31;58775;46.992;9.518;2023-08-06T06:09:40;14.82;93.19
71117;SHT31;58775;46.992;9.518;2023-08-06T06:11:41;14.93;92.86
71117;SHT31;58775;46.992;9.518;2023-08-06T06:13:42;14.86;91.99
71117;SHT31;58775;46.992;9.518;2023-08-06T06:15:43;15.02;91.22
71117;SHT31;58775;46.992;9.518;2023-08-06T06:17:44;14.92;91.93
71117;SHT31;58775;46.992;9.518;2023-08-06T06:19:44;14.72;92.01
71117;SHT31;58775;46.992;9.518;2023-08-06T06:21:45;14.99;91.38
71117;SHT31;58775;46.992;9.518;2023-08-06T06:23:46;15.19;90.27
71117;SHT31;58775;46.992;9.518;2023-08-06T06:25:49;15.33;88.66
71117;SHT31;58775;46.992;9.518;2023-08-06T06:27:50;15.56;88.06
71117;SHT31;58775;46.992;9.518;2023-08-06T06:29:51;15.66;88.36
71117;SHT31;58775;46.992;9.518;2023-08-06T06:31:53;15.53;90.73
71117;SHT31;58775;46.992;9.518;2023-08-06T06:33:53;15.76;88.72
71117;SHT31;58775;46.992;9.518;2023-08-06T06:35:54;15.96;87.68
71117;SHT31;58775;46.992;9.518;2023-08-06T06:37:55;15.83;90.22
71117;SHT31;58775;46.992;9.518;2023-08-06T06:39:56;16.09;88.60
71117;SHT31;58775;46.992;9.518;2023-08-06T06:41:57;16.14;88.41
71117;SHT31;58775;46.992;9.518;2023-08-06T06:44:06;16.18;88.94
71117;SHT31;58775;46.992;9.518;2023-08-06T06:46:06;15.81;90.43
71117;SHT31;58775;46.992;9.518;2023-08-06T06:48:07;16.00;89.22
71117;SHT31;58775;46.992;9.518;2023-08-06T06:50:08;15.84;90.08
71117;SHT31;58775;46.992;9.518;2023-08-06T06:52:09;15.73;90.66
71117;SHT31;58775;46.992;9.518;2023-08-06T06:54:12;15.93;89.03
71117;SHT31;58775;46.992;9.518;2023-08-06T06:56:22;15.76;89.71
71117;SHT31;58775;46.992;9.518;2023-08-06T06:58:26;15.49;87.86
71117;SHT31;58775;46.992;9.518;2023-08-06T07:00:27;15.46;87.00
71117;SHT31;58775;46.992;9.518;2023-08-06T07:02:57;15.16;85.12
71117;SHT31;58775;46.992;9.518;2023-08-06T07:05:16;15.29;83.59
71117;SHT31;58775;46.992;9.518;2023-08-06T07:12:13;15.29;82.86
71117;SHT31;58775;46.992;9.518;2023-08-06T07:14:23;15.07;85.09
71117;SHT31;58775;46.992;9.518;2023-08-06T07:16:52;14.98;84.92
71117;SHT31;58775;46.992;9.518;2023-08-06T07:18:54;14.84;82.76
71117;SHT31;58775;46.992;9.518;2023-08-06T07:20:56;14.82;84.50
71117;SHT31;58775;46.992;9.518;2023-08-06T07:22:58;14.71;82.39
71117;SHT31;58775;46.992;9.518;2023-08-06T07:24:59;14.81;83.69
71117;SHT31;58775;46.992;9.518;2023-08-06T07:27:02;14.52;84.14
71117;SHT31;58775;46.992;9.518;2023-08-06T07:29:03;14.47;84.23
71117;SHT31;58775;46.992;9.518;2023-08-06T07:42:00;14.61;83.49
71117;SHT31;58775;46.992;9.518;2023-08-06T07:44:29;14.75;83.83
71117;SHT31;58775;46.992;9.518;2023-08-06T07:49:00;15.10;82.69
71117;SHT31;58775;46.992;9.518;2023-08-06T07:51:12;14.95;84.50
71117;SHT31;58775;46.992;9.518;2023-08-06T07:53:13;14.76;83.56
71117;SHT31;58775;46.992;9.518;2023-08-06T07:55:22;14.89;82.94
71117;SHT31;58775;46.992;9.518;2023-08-06T07:57:23;14.93;82.15
71117;SHT31;58775;46.992;9.518;2023-08-06T08:01:56;15.25;83.04
71117;SHT31;58775;46.992;9.518;2023-08-06T08:09:50;15.56;83.28
71117;SHT31;58775;46.992;9.518;2023-08-06T08:11:51;15.81;79.93
71117;SHT31;58775;46.992;9.518;2023-08-06T08:14:08;16.09;81.75
71117;SHT31;58775;46.992;9.518;2023-08-06T08:18:21;16.55;80.96
71117;SHT31;58775;46.992;9.518;2023-08-06T08:20:22;16.77;76.40
71117;SHT31;58775;46.992;9.518;2023-08-06T08:22:22;16.94;78.07
71117;SHT31;58775;46.992;9.518;2023-08-06T08:24:24;17.16;75.99
71117;SHT31;58775;46.992;9.518;2023-08-06T08:26:25;17.47;76.26
71117;SHT31;58775;46.992;9.518;2023-08-06T08:28:28;17.78;76.38
71117;SHT31;58775;46.992;9.518;2023-08-06T08:30:28;17.70;74.36
71117;SHT31;58775;46.992;9.518;2023-08-06T08:32:29;17.85;72.76
71117;SHT31;58775;46.992;9.518;2023-08-06T08:34:30;18.33;72.98
71117;SHT31;58775;46.992;9.518;2023-08-06T08:36:31;18.26;73.62
71117;SHT31;58775;46.992;9.518;2023-08-06T08:38:32;18.29;74.25
71117;SHT31;58775;46.992;9.518;2023-08-06T08:40:35;18.33;70.79
71117;SHT31;58775;46.992;9.518;2023-08-06T08:42:39;18.22;71.97
71117;SHT31;58775;46.992;9.518;2023-08-06T08:44:40;18.56;72.45
71117;SHT31;58775;46.992;9.518;2023-08-06T08:46:42;18.37;74.96
71117;SHT31;58775;46.992;9.518;2023-08-06T08:48:43;18.50;71.16
71117;SHT31;58775;46.992;9.518;2023-08-06T08:50:45;18.57;73.19
71117;SHT31;58775;46.992;9.518;2023-08-06T08:52:47;18.16;70.51
71117;SHT31;58775;46.992;9.518;2023-08-06T08:54:50;18.01;71.37
71117;SHT31;58775;46.992;9.518;2023-08-06T08:56:52;17.74;73.97
71117;SHT31;58775;46.992;9.518;2023-08-06T08:58:55;17.95;72.76
71117;SHT31;58775;46.992;9.518;2023-08-06T09:00:57;17.62;76.12
71117;SHT31;58775;46.992;9.518;2023-08-06T09:02:58;17.09;72.25
71117;SHT31;58775;46.992;9.518;2023-08-06T09:05:01;17.21;73.40
71117;SHT31;58775;46.992;9.518;2023-08-06T09:07:04;17.51;73.72
71117;SHT31;58775;46.992;9.518;2023-08-06T09:09:08;17.74;71.28
71117;SHT31;58775;46.992;9.518;2023-08-06T09:11:09;17.50;71.36
71117;SHT31;58775;46.992;9.518;2023-08-06T09:13:11;17.77;70.67
71117;SHT31;58775;46.992;9.518;2023-08-06T09:15:12;17.26;74.99
71117;SHT31;58775;46.992;9.518;2023-08-06T09:17:14;17.07;74.87
71117;SHT31;58775;46.992;9.518;2023-08-06T09:19:15;16.94;72.35
71117;SHT31;58775;46.992;9.518;2023-08-06T09:21:17;16.68;73.86
71117;SHT31;58775;46.992;9.518;2023-08-06T09:23:18;16.91;73.07
71117;SHT31;58775;46.992;9.518;2023-08-06T09:25:22;17.16;73.58
71117;SHT31;58775;46.992;9.518;2023-08-06T09:27:25;17.16;72.55
71117;SHT31;58775;46.992;9.518;2023-08-06T09:29:31;17.70;72.22
71117;SHT31;58775;46.992;9.518;2023-08-06T09:31:42;17.79;69.25
71117;SHT31;58775;46.992;9.518;2023-08-06T09:33:43;17.78;71.79
71117;SHT31;58775;46.992;9.518;2023-08-06T09:35:46;17.82;73.60
71117;SHT31;58775;46.992;9.518;2023-08-06T09:37:47;17.85;73.84
71117;SHT31;58775;46.992;9.518;2023-08-06T09:39:48;17.21;73.98
71117;SHT31;58775;46.992;9.518;2023-08-06T09:41:55;16.65;74.11
71117;SHT31;58775;46.992;9.518;2023-08-06T09:43:57;15.93;76.47
71117;SHT31;58775;46.992;9.518;2023-08-06T09:45:58;15.93;77.09
71117;SHT31;58775;46.992;9.518;2023-08-06T09:48:04;15.78;76.03
71117;SHT31;58775;46.992;9.518;2023-08-06T09:50:06;16.07;76.32
71117;SHT31;58775;46.992;9.518;2023-08-06T09:52:12;15.80;76.86
71117;SHT31;58775;46.992;9.518;2023-08-06T09:54:15;15.23;76.28
71117;SHT31;58775;46.992;9.518;2023-08-06T09:56:17;15.56;77.71
71117;SHT31;58775;46.992;9.518;2023-08-06T09:58:20;15.54;78.17
71117;SHT31;58775;46.992;9.518;2023-08-06T10:00:23;15.33;75.75
71117;SHT31;58775;46.992;9.518;2023-08-06T10:02:24;15.63;77.09
71117;SHT31;58775;46.992;9.518;2023-08-06T10:04:29;15.39;77.60
71117;SHT31;58775;46.992;9.518;2023-08-06T10:06:31;15.76;75.58
71117;SHT31;58775;46.992;9.518;2023-08-06T10:08:34;16.09;77.13
71117;SHT31;58775;46.992;9.518;2023-08-06T10:10:35;16.00;75.64
71117;SHT31;58775;46.992;9.518;2023-08-06T10:12:46;16.07;73.44
71117;SHT31;58775;46.992;9.518;2023-08-06T10:14:48;16.17;74.08
71117;SHT31;58775;46.992;9.518;2023-08-06T10:16:51;16.02;74.50
71117;SHT31;58775;46.992;9.518;2023-08-06T10:18:53;16.02;75.52
71117;SHT31;58775;46.992;9.518;2023-08-06T10:20:54;16.26;72.67
71117;SHT31;58775;46.992;9.518;2023-08-06T10:23:03;16.32;71.36
71117;SHT31;58775;46.992;9.518;2023-08-06T10:25:04;16.72;71.76
71117;SHT31;58775;46.992;9.518;2023-08-06T10:27:06;16.97;70.92
71117;SHT31;58775;46.992;9.518;2023-08-06T10:29:36;17.17;70.49
71117;SHT31;58775;46.992;9.518;2023-08-06T10:31:54;17.27;71.22
71117;SHT31;58775;46.992;9.518;2023-08-06T10:33:58;17.61;69.12
71117;SHT31;58775;46.992;9.518;2023-08-06T10:36:02;18.06;70.45
71117;SHT31;58775;46.992;9.518;2023-08-06T10:38:11;18.44;69.84
71117;SHT31;58775;46.992;9.518;2023-08-06T10:40:21;18.17;67.16
71117;SHT31;58775;46.992;9.518;2023-08-06T10:42:27;17.88;69.80
71117;SHT31;58775;46.992;9.518;2023-08-06T10:44:28;17.98;69.12
71117;SHT31;58775;46.992;9.518;2023-08-06T10:46:29;18.68;67.90
71117;SHT31;58775;46.992;9.518;2023-08-06T10:48:44;18.49;67.79
71117;SHT31;58775;46.992;9.518;2023-08-06T10:50:45;18.68;68.20
71117;SHT31;58775;46.992;9.518;2023-08-06T10:52:47;18.23;67.89
71117;SHT31;58775;46.992;9.518;2023-08-06T10:54:48;18.32;67.48
71117;SHT31;58775;46.992;9.518;2023-08-06T10:56:49;19.21;67.41
71117;SHT31;58775;46.992;9.518;2023-08-06T10:58:51;19.66;65.95
71117;SHT31;58775;46.992;9.518;2023-08-06T11:00:52;18.80;65.73
71117;SHT31;58775;46.992;9.518;2023-08-06T11:02:53;19.08;68.67
71117;SHT31;58775;46.992;9.518;2023-08-06T11:04:55;19.67;67.53
71117;SHT31;58775;46.992;9.518;2023-08-06T11:06:57;19.56;66.16
71117;SHT31;58775;46.992;9.518;2023-08-06T11:08:58;19.86;67.03
71117;SHT31;58775;46.992;9.518;2023-08-06T11:11:12;18.91;69.64
71117;SHT31;58775;46.992;9.518;2023-08-06T11:13:17;18.75;68.31
71117;SHT31;58775;46.992;9.518;2023-08-06T11:15:20;18.68;67.33
71117;SHT31;58775;46.992;9.518;2023-08-06T11:17:22;18.33;68.46
71117;SHT31;58775;46.992;9.518;2023-08-06T11:19:23;17.88;70.44
71117;SHT31;58775;46.992;9.518;2023-08-06T11:21:25;17.60;72.19
71117;SHT31;58775;46.992;9.518;2023-08-06T11:23:27;17.75;72.27
71117;SHT31;58775;46.992;9.518;2023-08-06T11:25:29;18.02;73.31
71117;SHT31;58775;46.992;9.518;2023-08-06T11:27:30;17.70;72.31
71117;SHT31;58775;46.992;9.518;2023-08-06T11:29:37;17.62;70.84
71117;SHT31;58775;46.992;9.518;2023-08-06T11:31:38;17.64;71.70
71117;SHT31;58775;46.992;9.518;2023-08-06T11:33:41;17.57;73.89
71117;SHT31;58775;46.992;9.518;2023-08-06T11:35:42;17.41;72.44
71117;SHT31;58775;46.992;9.518;2023-08-06T11:37:46;17.51;73.69
71117;SHT31;58775;46.992;9.518;2023-08-06T11:39:47;18.19;69.95
71117;SHT31;58775;46.992;9.518;2023-08-06T11:41:51;18.91;69.91
71117;SHT31;58775;46.992;9.518;2023-08-06T11:43:52;18.97;67.60
71117;SHT31;58775;46.992;9.518;2023-08-06T11:45:56;18.46;72.34
71117;SHT31;58775;46.992;9.518;2023-08-06T11:47:57;18.61;68.24
71117;SHT31;58775;46.992;9.518;2023-08-06T11:49:59;18.68;67.76
71117;SHT31;58775;46.992;9.518;2023-08-06T11:52:00;18.57;68.18
71117;SHT31;58775;46.992;9.518;2023-08-06T11:54:01;18.29;68.90
71117;SHT31;58775;46.992;9.518;2023-08-06T11:56:03;18.32;66.23
71117;SHT31;58775;46.992;9.518;2023-08-06T11:58:04;19.51;66.19
71117;SHT31;58775;46.992;9.518;2023-08-06T12:00:10;19.59;69.88
71117;SHT31;58775;46.992;9.518;2023-08-06T12:02:16;20.14;64.46
71117;SHT31;58775;46.992;9.518;2023-08-06T12:04:17;20.64;63.58
71117;SHT31;58775;46.992;9.518;2023-08-06T12:06:18;20.78;65.97
71117;SHT31;58775;46.992;9.518;2023-08-06T12:08:19;19.70;64.56
71117;SHT31;58775;46.992;9.518;2023-08-06T12:10:22;19.36;65.30
71117;SHT31;58775;46.992;9.518;2023-08-06T12:12:23;19.01;64.93
71117;SHT31;58775;46.992;9.518;2023-08-06T12:14:25;18.43;69.67
71117;SHT31;58775;46.992;9.518;2023-08-06T12:16:26;18.36;73.20
71117;SHT31;58775;46.992;9.518;2023-08-06T12:18:27;19.00;68.89
71117;SHT31;58775;46.992;9.518;2023-08-06T12:20:29;18.90;70.89
71117;SHT31;58775;46.992;9.518;2023-08-06T12:22:30;18.39;71.38
71117;SHT31;58775;46.992;9.518;2023-08-06T12:24:48;17.82;73.32
71117;SHT31;58775;46.992;9.518;2023-08-06T12:26:49;17.42;77.43
71117;SHT31;58775;46.992;9.518;2023-08-06T12:28:50;18.10;73.32
71117;SHT31;58775;46.992;9.518;2023-08-06T12:30:55;18.91;71.89
71117;SHT31;58775;46.992;9.518;2023-08-06T12:32:56;18.32;70.05
71117;SHT31;58775;46.992;9.518;2023-08-06T12:34:57;19.10;70.67
71117;SHT31;58775;46.992;9.518;2023-08-06T12:36:58;20.24;68.51
71117;SHT31;58775;46.992;9.518;2023-08-06T12:39:00;19.80;66.10
71117;SHT31;58775;46.992;9.518;2023-08-06T12:41:01;20.43;65.06
71117;SHT31;58775;46.992;9.518;2023-08-06T12:43:03;20.28;65.11
71117;SHT31;58775;46.992;9.518;2023-08-06T12:45:04;20.21;65.62
71117;SHT31;58775;46.992;9.518;2023-08-06T12:47:07;20.49;63.25
71117;SHT31;58775;46.992;9.518;2023-08-06T12:49:08;20.98;63.58
71117;SHT31;58775;46.992;9.518;2023-08-06T12:51:09;20.40;63.33
71117;SHT31;58775;46.992;9.518;2023-08-06T12:53:10;20.89;60.48
71117;SHT31;58775;46.992;9.518;2023-08-06T12:55:11;20.59;60.66
71117;SHT31;58775;46.992;9.518;2023-08-06T12:57:12;20.58;60.33
71117;SHT31;58775;46.992;9.518;2023-08-06T12:59:15;20.78;62.08
71117;SHT31;58775;46.992;9.518;2023-08-06T13:01:16;20.96;60.62
71117;SHT31;58775;46.992;9.518;2023-08-06T13:03:17;19.83;64.15
71117;SHT31;58775;46.992;9.518;2023-08-06T13:05:18;20.14;64.65
71117;SHT31;58775;46.992;9.518;2023-08-06T13:07:20;20.52;63.84
71117;SHT31;58775;46.992;9.518;2023-08-06T13:09:21;21.08;64.95
71117;SHT31;58775;46.992;9.518;2023-08-06T13:11:23;21.66;60.67
71117;SHT31;58775;46.992;9.518;2023-08-06T13:13:24;21.88;62.72
71117;SHT31;58775;46.992;9.518;2023-08-06T13:15:27;21.46;61.56
71117;SHT31;58775;46.992;9.518;2023-08-06T13:17:28;21.25;59.42
71117;SHT31;58775;46.992;9.518;2023-08-06T13:19:29;21.12;59.54
71117;SHT31;58775;46.992;9.518;2023-08-06T13:22:19;20.68;60.44
71117;SHT31;58775;46.992;9.518;2023-08-06T13:23:55;21.19;60.78
71117;SHT31;58775;46.992;9.518;2023-08-06T13:25:57;21.02;60.12
71117;SHT31;58775;46.992;9.518;2023-08-06T13:27:59;20.06;62.99
71117;SHT31;58775;46.992;9.518;2023-08-06T13:30:00;19.26;64.45
71117;SHT31;58775;46.992;9.518;2023-08-06T13:32:02;20.49;63.72
71117;SHT31;58775;46.992;9.518;2023-08-06T13:34:03;20.59;64.78
71117;SHT31;58775;46.992;9.518;2023-08-06T13:36:05;20.51;62.63
71117;SHT31;58775;46.992;9.518;2023-08-06T13:38:06;20.72;62.38
71117;SHT31;58775;46.992;9.518;2023-08-06T13:40:08;20.16;62.98
71117;SHT31;58775;46.992;9.518;2023-08-06T13:42:10;20.09;65.83
71117;SHT31;58775;46.992;9.518;2023-08-06T13:44:11;18.97;65.18
71117;SHT31;58775;46.992;9.518;2023-08-06T13:46:14;18.95;65.75
71117;SHT31;58775;46.992;9.518;2023-08-06T13:48:20;18.17;66.82
71117;SHT31;58775;46.992;9.518;2023-08-06T13:50:21;18.46;70.74
71117;SHT31;58775;46.992;9.518;2023-08-06T13:52:22;18.53;67.50
71117;SHT31;58775;46.992;9.518;2023-08-06T13:54:26;18.52;69.85
71117;SHT31;58775;46.992;9.518;2023-08-06T13:56:35;18.50;68.97
71117;SHT31;58775;46.992;9.518;2023-08-06T13:58:53;17.88;68.89
71117;SHT31;58775;46.992;9.518;2023-08-06T14:00:54;17.70;68.13
71117;SHT31;58775;46.992;9.518;2023-08-06T14:02:56;17.45;71.07
71117;SHT31;58775;46.992;9.518;2023-08-06T14:04:57;17.27;69.56
71117;SHT31;58775;46.992;9.518;2023-08-06T14:07:00;17.28;69.32
71117;SHT31;58775;46.992;9.518;2023-08-06T14:09:01;17.28;69.86
71117;SHT31;58775;46.992;9.518;2023-08-06T14:11:02;17.55;70.28
71117;SHT31;58775;46.992;9.518;2023-08-06T14:13:03;17.20;68.00
71117;SHT31;58775;46.992;9.518;2023-08-06T14:15:04;17.74;73.89
71117;SHT31;58775;46.992;9.518;2023-08-06T14:17:11;18.16;70.38
71117;SHT31;58775;46.992;9.518;2023-08-06T14:19:28;17.86;70.03
71117;SHT31;58775;46.992;9.518;2023-08-06T14:31:44;17.31;67.81
71117;SHT31;58775;46.992;9.518;2023-08-06T14:33:51;17.20;71.56
71117;SHT31;58775;46.992;9.518;2023-08-06T14:35:52;16.94;74.73
71117;SHT31;58775;46.992;9.518;2023-08-06T14:37:54;16.45;75.83
71117;SHT31;58775;46.992;9.518;2023-08-06T14:39:55;16.09;75.83
71117;SHT31;58775;46.992;9.518;2023-08-06T14:41:56;16.28;76.97
71117;SHT31;58775;46.992;9.518;2023-08-06T14:43:57;16.51;76.42
71117;SHT31;58775;46.992;9.518;2023-08-06T14:45:58;16.44;79.95
71117;SHT31;58775;46.992;9.518;2023-08-06T14:47:59;16.86;78.15
71117;SHT31;58775;46.992;9.518;2023-08-06T14:50:00;16.36;76.86
71117;SHT31;58775;46.992;9.518;2023-08-06T14:52:01;16.12;78.56
71117;SHT31;58775;46.992;9.518;2023-08-06T14:54:02;16.41;78.87
71117;SHT31;58775;46.992;9.518;2023-08-06T14:56:03;16.73;79.30
71117;SHT31;58775;46.992;9.518;2023-08-06T14:58:04;16.76;76.55
71117;SHT31;58775;46.992;9.518;2023-08-06T15:00:08;16.48;76.57
71117;SHT31;58775;46.992;9.518;2023-08-06T15:02:11;16.62;78.90
71117;SHT31;58775;46.992;9.518;2023-08-06T15:04:16;16.70;77.83
71117;SHT31;58775;46.992;9.518;2023-08-06T15:06:17;16.29;77.51
71117;SHT31;58775;46.992;9.518;2023-08-06T15:08:18;16.51;77.83
71117;SHT31;58775;46.992;9.518;2023-08-06T15:10:19;15.97;79.08
71117;SHT31;58775;46.992;9.518;2023-08-06T15:12:20;15.96;80.73
71117;SHT31;58775;46.992;9.518;2023-08-06T15:14:22;15.44;82.28
71117;SHT31;58775;46.992;9.518;2023-08-06T15:16:23;15.56;81.46
71117;SHT31;58775;46.992;9.518;2023-08-06T15:18:24;15.43;80.37
71117;SHT31;58775;46.992;9.518;2023-08-06T15:20:25;15.23;82.91
71117;SHT31;58775;46.992;9.518;2023-08-06T15:22:47;15.02;83.69
71117;SHT31;58775;46.992;9.518;2023-08-06T15:24:48;14.60;85.60
71117;SHT31;58775;46.992;9.518;2023-08-06T15:26:49;14.57;82.85
71117;SHT31;58775;46.992;9.518;2023-08-06T15:28:50;14.64;86.59
71117;SHT31;58775;46.992;9.518;2023-08-06T15:30:51;14.72;82.75
71117;SHT31;58775;46.992;9.518;2023-08-06T15:32:52;14.86;88.63
71117;SHT31;58775;46.992;9.518;2023-08-06T15:34:53;14.81;84.12
71117;SHT31;58775;46.992;9.518;2023-08-06T15:37:00;14.81;82.60
71117;SHT31;58775;46.992;9.518;2023-08-06T15:39:01;14.98;83.83
71117;SHT31;58775;46.992;9.518;2023-08-06T15:41:04;14.95;84.46
71117;SHT31;58775;46.992;9.518;2023-08-06T15:43:05;15.03;85.61
71117;SHT31;58775;46.992;9.518;2023-08-06T15:45:19;15.25;85.45
71117;SHT31;58775;46.992;9.518;2023-08-06T15:47:43;15.30;84.07
71117;SHT31;58775;46.992;9.518;2023-08-06T15:50:16;15.57;82.83
71117;SHT31;58775;46.992;9.518;2023-08-06T15:52:17;15.60;83.55
71117;SHT31;58775;46.992;9.518;2023-08-06T15:54:19;15.58;81.91
71117;SHT31;58775;46.992;9.518;2023-08-06T15:56:22;15.30;80.62
71117;SHT31;58775;46.992;9.518;2023-08-06T15:58:23;15.42;79.69
71117;SHT31;58775;46.992;9.518;2023-08-06T16:00:25;15.46;83.99
71117;SHT31;58775;46.992;9.518;2023-08-06T16:02:28;15.25;82.04
71117;SHT31;58775;46.992;9.518;2023-08-06T16:04:30;15.44;81.01
71117;SHT31;58775;46.992;9.518;2023-08-06T16:06:31;15.16;82.32
71117;SHT31;58775;46.992;9.518;2023-08-06T16:08:32;15.16;82.71
71117;SHT31;58775;46.992;9.518;2023-08-06T16:10:34;15.27;81.82
71117;SHT31;58775;46.992;9.518;2023-08-06T16:12:38;15.03;80.48
71117;SHT31;58775;46.992;9.518;2023-08-06T16:15:19;15.09;80.18
71117;SHT31;58775;46.992;9.518;2023-08-06T16:17:24;15.10;79.13
71117;SHT31;58775;46.992;9.518;2023-08-06T16:19:40;14.96;77.35
71117;SHT31;58775;46.992;9.518;2023-08-06T16:21:41;15.02;79.00
71117;SHT31;58775;46.992;9.518;2023-08-06T16:23:43;15.07;79.79
71117;SHT31;58775;46.992;9.518;2023-08-06T16:25:44;15.29;80.32
71117;SHT31;58775;46.992;9.518;2023-08-06T16:27:48;15.39;76.82
71117;SHT31;58775;46.992;9.518;2023-08-06T16:29:49;15.51;77.77
71117;SHT31;58775;46.992;9.518;2023-08-06T16:31:52;15.56;78.03
71117;SHT31;58775;46.992;9.518;2023-08-06T16:33:53;15.33;79.08
71117;SHT31;58775;46.992;9.518;2023-08-06T16:35:55;15.13;78.34
71117;SHT31;58775;46.992;9.518;2023-08-06T16:37:56;15.12;79.80
71117;SHT31;58775;46.992;9.518;2023-08-06T16:40:06;15.05;78.74
71117;SHT31;58775;46.992;9.518;2023-08-06T16:50:45;14.60;80.08
71117;SHT31;58775;46.992;9.518;2023-08-06T16:52:46;14.60;78.23
71117;SHT31;58775;46.992;9.518;2023-08-06T16:54:48;14.65;80.90
71117;SHT31;58775;46.992;9.518;2023-08-06T16:56:50;14.20;84.25
71117;SHT31;58775;46.992;9.518;2023-08-06T16:58:51;14.16;85.14
71117;SHT31;58775;46.992;9.518;2023-08-06T17:00:52;13.90;84.72
71117;SHT31;58775;46.992;9.518;2023-08-06T17:02:53;13.79;87.56
71117;SHT31;58775;46.992;9.518;2023-08-06T17:04:54;13.63;85.29
71117;SHT31;58775;46.992;9.518;2023-08-06T17:06:55;13.52;87.54
71117;SHT31;58775;46.992;9.518;2023-08-06T17:08:57;13.46;87.57
71117;SHT31;58775;46.992;9.518;2023-08-06T17:11:00;13.34;87.06
71117;SHT31;58775;46.992;9.518;2023-08-06T17:13:04;13.58;85.83
71117;SHT31;58775;46.992;9.518;2023-08-06T17:15:05;13.72;86.00
71117;SHT31;58775;46.992;9.518;2023-08-06T17:17:07;13.51;86.53
71117;SHT31;58775;46.992;9.518;2023-08-06T17:19:08;13.55;87.26
71117;SHT31;58775;46.992;9.518;2023-08-06T17:21:15;13.59;84.70
71117;SHT31;58775;46.992;9.518;2023-08-06T17:23:19;13.63;84.08
71117;SHT31;58775;46.992;9.518;2023-08-06T17:25:20;13.77;86.23
71117;SHT31;58775;46.992;9.518;2023-08-06T17:27:23;13.67;84.13
71117;SHT31;58775;46.992;9.518;2023-08-06T17:29:33;13.52;82.89
71117;SHT31;58775;46.992;9.518;2023-08-06T17:31:33;13.55;87.61
71117;SHT31;58775;46.992;9.518;2023-08-06T17:33:34;13.38;84.93
71117;SHT31;58775;46.992;9.518;2023-08-06T17:35:35;13.34;82.13
71117;SHT31;58775;46.992;9.518;2023-08-06T17:37:36;13.51;84.74
71117;SHT31;58775;46.992;9.518;2023-08-06T17:39:37;13.38;81.51
71117;SHT31;58775;46.992;9.518;2023-08-06T17:41:38;13.49;83.29
71117;SHT31;58775;46.992;9.518;2023-08-06T17:43:43;13.39;81.51
71117;SHT31;58775;46.992;9.518;2023-08-06T17:45:46;13.25;82.73
71117;SHT31;58775;46.992;9.518;2023-08-06T17:47:47;13.34;83.69
71117;SHT31;58775;46.992;9.518;2023-08-06T17:49:49;13.28;83.76
71117;SHT31;58775;46.992;9.518;2023-08-06T17:51:56;13.42;83.58
71117;SHT31;58775;46.992;9.518;2023-08-06T17:53:59;13.46;81.62
71117;SHT31;58775;46.992;9.518;2023-08-06T17:56:06;13.28;82.93
71117;SHT31;58775;46.992;9.518;2023-08-06T17:58:28;13.35;83.31
71117;SHT31;58775;46.992;9.518;2023-08-06T18:00:33;13.36;82.92
71117;SHT31;58775;46.992;9.518;2023-08-06T18:02:37;13.25;83.38
71117;SHT31;58775;46.992;9.518;2023-08-06T18:05:08;13.34;82.74
71117;SHT31;58775;46.992;9.518;2023-08-06T18:08:09;13.19;85.75
71117;SHT31;58775;46.992;9.518;2023-08-06T18:10:24;13.28;80.81
71117;SHT31;58775;46.992;9.518;2023-08-06T18:12:25;13.19;80.16
71117;SHT31;58775;46.992;9.518;2023-08-06T18:14:26;13.16;82.12
71117;SHT31;58775;46.992;9.518;2023-08-06T18:16:27;13.18;82.28
71117;SHT31;58775;46.992;9.518;2023-08-06T18:18:29;13.15;83.57
71117;SHT31;58775;46.992;9.518;2023-08-06T18:20:30;13.14;86.21
71117;SHT31;58775;46.992;9.518;2023-08-06T18:22:31;12.91;87.60
71117;SHT31;58775;46.992;9.518;2023-08-06T18:24:32;13.05;84.11
71117;SHT31;58775;46.992;9.518;2023-08-06T18:26:33;12.85;87.86
71117;SHT31;58775;46.992;9.518;2023-08-06T18:28:34;12.83;88.96
71117;SHT31;58775;46.992;9.518;2023-08-06T18:30:35;12.80;89.86
71117;SHT31;58775;46.992;9.518;2023-08-06T18:32:36;12.88;89.49
71117;SHT31;58775;46.992;9.518;2023-08-06T18:34:38;12.65;90.81
71117;SHT31;58775;46.992;9.518;2023-08-06T18:36:39;12.64;91.49
71117;SHT31;58775;46.992;9.518;2023-08-06T18:38:40;12.57;90.09
71117;SHT31;58775;46.992;9.518;2023-08-06T18:40:42;12.60;89.78
71117;SHT31;58775;46.992;9.518;2023-08-06T18:42:43;12.67;89.18
71117;SHT31;58775;46.992;9.518;2023-08-06T18:44:44;12.76;86.54
71117;SHT31;58775;46.992;9.518;2023-08-06T18:46:45;13.02;84.01
71117;SHT31;58775;46.992;9.518;2023-08-06T18:48:46;13.02;85.85
71117;SHT31;58775;46.992;9.518;2023-08-06T18:51:00;13.04;82.96
71117;SHT31;58775;46.992;9.518;2023-08-06T18:53:07;13.15;83.36
71117;SHT31;58775;46.992;9.518;2023-08-06T18:55:10;13.16;84.21
71117;SHT31;58775;46.992;9.518;2023-08-06T18:57:14;13.32;85.17
71117;SHT31;58775;46.992;9.518;2023-08-06T18:59:14;13.14;84.63
71117;SHT31;58775;46.992;9.518;2023-08-06T19:01:20;13.10;84.71
71117;SHT31;58775;46.992;9.518;2023-08-06T19:03:22;13.16;83.00
71117;SHT31;58775;46.992;9.518;2023-08-06T19:05:25;13.21;82.38
71117;SHT31;58775;46.992;9.518;2023-08-06T19:07:27;13.16;82.89
71117;SHT31;58775;46.992;9.518;2023-08-06T19:09:28;13.04;87.87
71117;SHT31;58775;46.992;9.518;2023-08-06T19:11:54;13.12;83.12
71117;SHT31;58775;46.992;9.518;2023-08-06T19:13:55;13.14;84.48
71117;SHT31;58775;46.992;9.518;2023-08-06T19:15:58;13.04;88.14